Time;durP1;ratioP1;P1;durP2;ratioP2;P2;SDS_P1;SDS_P2;PMS_P1;PMS_P2;Temp;Humidity;BMP_temperature;BMP_pressure;BME280_temperature;BME280_humidity;BME280_pressure;Samples;Min_cycle;Max_cycle;Signal;HPM_P1;HPM_P2
2023/11/05 00:02:05;;;;;;;5.30;1.70;;;10.50;99.90;;;;;;5044093;28;20661;-43
2023/11/05 00:04:30;;;;;;;6.22;1.77;;;10.60;99.90;;;;;;5043394;28;20029;-42
2023/11/05 00:06:56;;;;;;;6.78;1.83;;;10.50;99.90;;;;;;5042890;28;20041;-42
2023/11/05 00:09:22;;;;;;;4.43;1.55;;;10.50;99.90;;;;;;5044071;28;20071;-43
2023/11/05 00:11:48;;;;;;;6.30;1.30;;;10.50;99.90;;;;;;5043646;28;20567;-43
2023/11/05 00:14:13;;;;;;;2.92;1.13;;;10.60;99.90;;;;;;5042091;28;20016;-43
2023/11/05 00:16:39;;;;;;;5.50;1.40;;;10.60;99.90;;;;;;5042856;28;20033;-43
2023/11/05 00:19:04;;;;;;;5.60;1.55;;;10.70;99.90;;;;;;5042757;28;20388;-43
2023/11/05 00:21:30;;;;;;;4.28;1.55;;;10.70;99.90;;;;;;5042812;28;20032;-43
2023/11/05 00:23:59;;;;;;;7.30;1.73;;;10.80;99.90;;;;;;5043285;28;20115;-43
2023/11/05 00:26:24;;;;;;;4.70;1.50;;;10.80;99.90;;;;;;5043449;28;20095;-44
2023/11/05 00:28:50;;;;;;;7.20;1.50;;;10.90;99.90;;;;;;5042567;28;20021;-41
2023/11/05 00:31:15;;;;;;;6.32;1.50;;;10.90;99.90;;;;;;5042790;28;20033;-43
2023/11/05 00:33:41;;;;;;;3.72;1.35;;;10.90;99.90;;;;;;5042553;28;20064;-43
2023/11/05 00:36:09;;;;;;;8.70;1.90;;;11.00;99.90;;;;;;5042191;28;20037;-42
2023/11/05 00:38:35;;;;;;;3.67;1.27;;;11.00;99.90;;;;;;5040091;28;20056;-44
2023/11/05 00:41:00;;;;;;;4.95;1.20;;;11.00;99.90;;;;;;5042434;28;20044;-43
2023/11/05 00:43:27;;;;;;;5.40;1.48;;;11.00;99.90;;;;;;5053380;28;20035;-44
2023/11/05 00:45:56;;;;;;;5.18;1.88;;;11.00;99.90;;;;;;5043817;28;20029;-43
2023/11/05 00:48:22;;;;;;;4.65;1.55;;;11.00;99.90;;;;;;5043519;28;20029;-44
2023/11/05 00:50:47;;;;;;;5.90;1.63;;;11.00;99.90;;;;;;5042620;28;20033;-41
2023/11/05 00:53:13;;;;;;;5.85;1.63;;;11.00;99.90;;;;;;5042739;28;20076;-43
2023/11/05 00:55:38;;;;;;;6.90;1.38;;;11.00;99.90;;;;;;5038654;28;20029;-43
2023/11/05 00:58:04;;;;;;;3.97;1.95;;;10.90;99.90;;;;;;5043252;28;20071;-43
2023/11/05 01:00:30;;;;;;;4.93;1.67;;;10.90;99.90;;;;;;5045279;28;20616;-43
2023/11/05 01:02:55;;;;;;;3.95;1.35;;;10.90;99.90;;;;;;5041936;28;20362;-43
2023/11/05 01:05:21;;;;;;;6.57;1.73;;;11.00;99.90;;;;;;5042358;28;20013;-43
2023/11/05 01:07:46;;;;;;;8.20;1.60;;;11.00;99.90;;;;;;5042169;28;20479;-43
2023/11/05 01:10:12;;;;;;;6.30;1.58;;;11.00;99.90;;;;;;5041388;28;20760;-42
2023/11/05 01:12:37;;;;;;;6.97;1.65;;;11.00;99.90;;;;;;5042863;28;20112;-43
2023/11/05 01:15:03;;;;;;;5.53;1.50;;;11.00;99.90;;;;;;5042537;28;20094;-42
2023/11/05 01:17:31;;;;;;;9.95;1.92;;;11.00;99.90;;;;;;5042603;28;20017;-43
2023/11/05 01:19:57;;;;;;;5.97;1.60;;;11.00;99.90;;;;;;5042291;28;20085;-43
2023/11/05 01:22:22;;;;;;;7.18;1.33;;;11.00;99.90;;;;;;5042198;28;20046;-43
2023/11/05 01:24:48;;;;;;;5.40;1.58;;;11.00;99.90;;;;;;5042534;28;20029;-43
2023/11/05 01:27:14;;;;;;;6.53;1.52;;;11.10;99.90;;;;;;5041540;28;20464;-44
2023/11/05 01:29:42;;;;;;;5.80;1.50;;;11.10;99.90;;;;;;5042146;28;20064;-43
2023/11/05 01:32:08;;;;;;;8.00;1.50;;;11.20;99.90;;;;;;5041394;28;20118;-43
2023/11/05 01:34:34;;;;;;;7.40;1.80;;;11.20;99.90;;;;;;5042284;28;20021;-44
2023/11/05 01:36:59;;;;;;;3.13;1.02;;;11.20;99.90;;;;;;5042043;28;20053;-43
2023/11/05 01:39:25;;;;;;;2.92;1.13;;;11.20;99.90;;;;;;5042072;28;20031;-43
2023/11/05 01:41:51;;;;;;;8.32;1.98;;;11.20;99.90;;;;;;5042536;28;20025;-42
2023/11/05 01:44:17;;;;;;;5.95;1.48;;;11.20;99.90;;;;;;5041897;28;20090;-42
2023/11/05 01:46:43;;;;;;;3.80;1.20;;;11.20;99.90;;;;;;5041537;28;20744;-42
2023/11/05 01:49:09;;;;;;;4.72;1.20;;;11.30;99.90;;;;;;5041651;28;20029;-42
2023/11/05 01:51:36;;;;;;;4.32;1.08;;;11.30;99.90;;;;;;5045857;28;20021;-42
2023/11/05 01:54:03;;;;;;;3.97;1.30;;;11.30;99.90;;;;;;5041129;28;20102;-42
2023/11/05 01:56:31;;;;;;;4.38;1.17;;;11.30;99.90;;;;;;5040757;28;20013;-42
2023/11/05 01:59:02;;;;;;;4.63;1.45;;;11.30;99.90;;;;;;5041078;28;20793;-43
2023/11/05 02:01:28;;;;;;;4.82;1.00;;;11.30;99.90;;;;;;5041127;28;20025;-43
2023/11/05 02:03:54;;;;;;;6.18;1.30;;;11.30;99.90;;;;;;5041127;28;20522;-44
2023/11/05 02:06:19;;;;;;;5.00;1.35;;;11.30;99.90;;;;;;5040420;28;20036;-44
2023/11/05 02:08:45;;;;;;;3.95;1.33;;;11.30;99.90;;;;;;5041208;28;20019;-43
2023/11/05 02:11:10;;;;;;;4.63;1.58;;;11.30;99.90;;;;;;5040575;28;20719;-41
2023/11/05 02:13:49;;;;;;;7.22;1.48;;;11.30;99.90;;;;;;5040127;28;20551;-42
2023/11/05 02:16:15;;;;;;;4.60;1.25;;;11.30;99.90;;;;;;5041174;28;20697;-42
2023/11/05 02:18:41;;;;;;;4.07;1.40;;;11.20;99.90;;;;;;5041086;28;20107;-42
2023/11/05 02:21:08;;;;;;;2.75;1.02;;;11.20;99.90;;;;;;5039841;28;20047;-46
2023/11/05 02:23:34;;;;;;;3.17;1.00;;;11.20;99.90;;;;;;5039925;28;20657;-42
2023/11/05 02:26:00;;;;;;;3.85;1.02;;;11.20;99.90;;;;;;5041113;28;20037;-42
2023/11/05 02:28:26;;;;;;;6.07;1.23;;;11.20;99.90;;;;;;5040149;28;20032;-42
2023/11/05 02:30:54;;;;;;;4.80;1.05;;;11.20;99.90;;;;;;5041673;28;20029;-43
2023/11/05 02:33:29;;;;;;;4.68;1.20;;;11.20;99.90;;;;;;5040942;28;20036;-43
2023/11/05 02:35:55;;;;;;;4.55;1.50;;;11.20;99.90;;;;;;5040827;28;20049;-42
2023/11/05 02:38:20;;;;;;;4.57;1.20;;;11.20;99.90;;;;;;5041414;28;20032;-41
2023/11/05 02:40:46;;;;;;;5.25;1.20;;;11.20;99.90;;;;;;5041096;28;20465;-42
2023/11/05 02:43:11;;;;;;;4.78;1.17;;;11.10;99.90;;;;;;5040826;28;20814;-43
2023/11/05 02:45:37;;;;;;;4.20;1.45;;;11.10;99.90;;;;;;5040963;28;20025;-42
2023/11/05 02:48:03;;;;;;;3.40;1.13;;;11.20;99.90;;;;;;5040881;28;20043;-43
2023/11/05 02:50:28;;;;;;;3.72;1.10;;;11.10;99.90;;;;;;5040311;28;20021;-42
2023/11/05 02:52:54;;;;;;;3.13;1.10;;;11.10;99.90;;;;;;5040847;28;20665;-43
2023/11/05 02:55:20;;;;;;;2.70;1.10;;;11.10;99.90;;;;;;5039881;28;20533;-42
2023/11/05 02:57:45;;;;;;;4.38;1.00;;;11.10;99.90;;;;;;5046866;28;20550;-42
2023/11/05 03:00:13;;;;;;;3.53;1.10;;;11.10;99.90;;;;;;5050472;28;20029;-43
2023/11/05 03:02:39;;;;;;;3.88;1.30;;;11.10;99.90;;;;;;5047174;28;20021;-43
2023/11/05 03:05:05;;;;;;;3.00;1.15;;;11.10;99.90;;;;;;5047700;28;20039;-42
2023/11/05 03:07:37;;;;;;;5.30;1.20;;;11.10;99.90;;;;;;5047199;28;20036;-42
2023/11/05 03:10:03;;;;;;;2.38;0.98;;;11.10;99.90;;;;;;5046120;28;20029;-42
2023/11/05 03:12:31;;;;;;;2.30;1.00;;;11.10;99.90;;;;;;5046946;28;20062;-42
2023/11/05 03:14:57;;;;;;;5.82;1.27;;;11.10;99.90;;;;;;5046700;28;20106;-44
2023/11/05 03:17:22;;;;;;;2.47;0.80;;;11.10;99.90;;;;;;5046648;28;20484;-43
2023/11/05 03:19:48;;;;;;;3.58;1.20;;;11.00;99.90;;;;;;5046296;28;20082;-43
2023/11/05 03:22:14;;;;;;;3.70;1.00;;;11.00;99.90;;;;;;5046190;28;20060;-42
2023/11/05 03:24:40;;;;;;;2.40;1.00;;;11.00;99.90;;;;;;5046754;28;20017;-42
2023/11/05 03:27:07;;;;;;;3.03;1.10;;;10.90;99.90;;;;;;5046648;28;20563;-42
2023/11/05 03:29:35;;;;;;;2.35;0.93;;;10.90;99.90;;;;;;5046809;28;20774;-42
2023/11/05 03:32:01;;;;;;;2.55;0.60;;;11.00;99.90;;;;;;5046763;28;20037;-42
2023/11/05 03:34:26;;;;;;;2.40;0.80;;;11.00;99.90;;;;;;5046736;28;20028;-42
2023/11/05 03:36:52;;;;;;;3.10;0.95;;;11.00;99.90;;;;;;5046552;28;20045;-42
2023/11/05 03:39:17;;;;;;;4.15;0.80;;;11.00;99.90;;;;;;5046539;28;20093;-42
2023/11/05 03:41:44;;;;;;;1.52;0.80;;;11.00;99.90;;;;;;5047518;28;20033;-43
2023/11/05 03:44:13;;;;;;;3.67;0.80;;;11.00;99.90;;;;;;5046650;28;20103;-43
2023/11/05 03:46:40;;;;;;;1.65;0.57;;;11.00;99.90;;;;;;5046683;28;20419;-43
2023/11/05 03:49:06;;;;;;;3.75;0.68;;;11.00;99.90;;;;;;5032221;28;20578;-42
2023/11/05 03:51:32;;;;;;;2.50;0.70;;;11.00;99.90;;;;;;5049742;28;20033;-42
2023/11/05 03:54:00;;;;;;;0.85;0.73;;;11.00;99.90;;;;;;5047076;28;20242;-43
2023/11/05 03:56:26;;;;;;;3.10;0.60;;;11.00;99.90;;;;;;5046613;28;20025;-42
2023/11/05 03:58:51;;;;;;;1.38;0.68;;;11.00;99.90;;;;;;5046286;28;20388;-42
2023/11/05 04:01:19;;;;;;;1.60;0.55;;;11.00;99.90;;;;;;5046349;28;20548;-41
2023/11/05 04:03:45;;;;;;;1.60;0.60;;;11.10;99.90;;;;;;5046562;28;20324;-42
2023/11/05 04:06:11;;;;;;;1.73;0.60;;;11.10;99.90;;;;;;5045395;28;20511;-42
2023/11/05 04:08:36;;;;;;;2.13;0.60;;;11.10;99.90;;;;;;5045260;28;20033;-42
2023/11/05 04:11:02;;;;;;;2.10;0.80;;;11.20;99.90;;;;;;5043332;28;20017;-42
2023/11/05 04:13:28;;;;;;;1.73;0.98;;;11.10;99.90;;;;;;5042819;28;20075;-42
2023/11/05 04:15:54;;;;;;;3.60;0.60;;;11.10;99.90;;;;;;5043106;28;20116;-42
2023/11/05 04:18:19;;;;;;;1.40;0.57;;;11.10;99.90;;;;;;5043634;28;20116;-42
2023/11/05 04:20:45;;;;;;;0.70;0.40;;;11.20;99.90;;;;;;5043436;28;20025;-42
2023/11/05 04:23:11;;;;;;;1.63;0.50;;;11.20;99.90;;;;;;5043166;28;20110;-42
2023/11/05 04:25:37;;;;;;;1.92;0.50;;;11.20;99.90;;;;;;5044081;28;20380;-42
2023/11/05 04:28:04;;;;;;;1.23;0.60;;;11.20;99.90;;;;;;5042660;28;20029;-43
2023/11/05 04:30:29;;;;;;;1.65;0.52;;;11.20;99.90;;;;;;5043232;28;20028;-42
2023/11/05 04:32:58;;;;;;;1.67;0.65;;;11.20;99.90;;;;;;5042712;28;20392;-42
2023/11/05 04:35:23;;;;;;;0.98;0.45;;;11.20;99.90;;;;;;5041964;28;20029;-42
2023/11/05 04:37:49;;;;;;;1.15;0.63;;;11.20;99.90;;;;;;5043157;28;20062;-42
2023/11/05 04:40:15;;;;;;;0.98;0.60;;;11.20;99.90;;;;;;5043244;28;20071;-43
2023/11/05 04:42:44;;;;;;;1.70;0.70;;;11.20;99.90;;;;;;5043180;28;20071;-42
2023/11/05 04:45:14;;;;;;;0.90;0.77;;;11.20;99.90;;;;;;5042451;28;20036;-42
2023/11/05 04:47:39;;;;;;;0.57;0.40;;;11.20;99.90;;;;;;5042623;28;20043;-42
2023/11/05 04:50:05;;;;;;;2.08;0.45;;;11.20;99.90;;;;;;5042963;28;20029;-43
2023/11/05 04:52:30;;;;;;;0.98;0.52;;;11.20;99.90;;;;;;5040113;28;20036;-42
2023/11/05 04:54:57;;;;;;;1.35;0.60;;;11.20;99.90;;;;;;5042031;28;20476;-43
2023/11/05 04:57:23;;;;;;;1.23;0.47;;;11.20;99.90;;;;;;5043155;28;20033;-44
2023/11/05 04:59:48;;;;;;;1.83;0.30;;;11.20;99.90;;;;;;5044096;28;20079;-42
2023/11/05 05:02:14;;;;;;;1.48;0.60;;;11.20;99.90;;;;;;5041613;28;20647;-42
2023/11/05 05:04:42;;;;;;;1.30;0.50;;;11.20;99.90;;;;;;5042415;28;20077;-42
2023/11/05 05:07:08;;;;;;;0.57;0.40;;;11.30;99.90;;;;;;5042873;28;20027;-43
2023/11/05 05:09:35;;;;;;;0.70;0.50;;;11.20;99.90;;;;;;5041319;28;20024;-43
2023/11/05 05:12:00;;;;;;;1.10;0.50;;;11.20;99.90;;;;;;5042273;28;20222;-43
2023/11/05 05:14:26;;;;;;;0.80;0.50;;;11.20;99.90;;;;;;5042592;28;20422;-42
2023/11/05 05:16:53;;;;;;;1.15;0.60;;;11.20;99.90;;;;;;5041711;28;20044;-42
2023/11/05 05:19:18;;;;;;;1.35;0.57;;;11.20;99.90;;;;;;5041720;28;20104;-42
2023/11/05 05:21:45;;;;;;;1.63;0.70;;;11.20;99.90;;;;;;5042557;28;20110;-42
2023/11/05 05:24:11;;;;;;;1.55;0.40;;;11.20;99.90;;;;;;5040848;28;20412;-43
2023/11/05 05:26:37;;;;;;;2.35;0.60;;;11.20;99.90;;;;;;5042235;28;20476;-44
2023/11/05 05:29:04;;;;;;;0.85;0.50;;;11.20;99.90;;;;;;5042256;28;20025;-44
2023/11/05 05:31:30;;;;;;;0.65;0.50;;;11.30;99.90;;;;;;5042660;28;20083;-43
2023/11/05 05:33:56;;;;;;;1.83;0.60;;;11.30;99.90;;;;;;5042751;28;20039;-44
2023/11/05 05:36:21;;;;;;;1.85;0.70;;;11.30;99.90;;;;;;5041809;28;20435;-41
2023/11/05 05:38:48;;;;;;;1.40;0.43;;;11.30;99.90;;;;;;5041722;28;20526;-42
2023/11/05 05:41:14;;;;;;;1.38;0.50;;;11.30;99.90;;;;;;5041331;28;20243;-43
2023/11/05 05:43:39;;;;;;;1.45;0.70;;;11.30;99.90;;;;;;5042088;28;20021;-42
2023/11/05 05:46:05;;;;;;;0.70;0.50;;;11.40;99.90;;;;;;5040784;28;20129;-43
2023/11/05 05:48:31;;;;;;;1.42;0.70;;;11.40;99.90;;;;;;5043342;28;20021;-43
2023/11/05 05:50:57;;;;;;;1.33;0.50;;;11.40;99.90;;;;;;5044024;28;20028;-42
2023/11/05 05:53:22;;;;;;;0.82;0.50;;;11.40;99.90;;;;;;5041346;28;20036;-44
2023/11/05 05:55:49;;;;;;;1.38;0.60;;;11.40;99.90;;;;;;5041753;28;20233;-43
2023/11/05 05:58:16;;;;;;;2.10;0.50;;;11.40;99.90;;;;;;5040447;28;20499;-43
2023/11/05 06:00:45;;;;;;;2.05;0.70;;;11.40;99.90;;;;;;5041528;28;20029;-43
2023/11/05 06:03:10;;;;;;;1.23;0.70;;;11.40;99.90;;;;;;5041427;28;20032;-42
2023/11/05 06:05:36;;;;;;;2.08;0.75;;;11.40;99.90;;;;;;5040880;28;20021;-42
2023/11/05 06:08:02;;;;;;;1.60;0.82;;;11.40;99.90;;;;;;5040922;28;20068;-42
2023/11/05 06:10:28;;;;;;;1.83;0.70;;;11.40;99.90;;;;;;5040978;28;20059;-43
2023/11/05 06:12:53;;;;;;;1.65;0.85;;;11.40;99.90;;;;;;5040560;28;20579;-45
2023/11/05 06:15:19;;;;;;;2.00;0.80;;;11.40;99.90;;;;;;5040753;28;20025;-43
2023/11/05 06:17:44;;;;;;;1.17;0.60;;;11.50;99.90;;;;;;5041736;28;20071;-42
2023/11/05 06:20:11;;;;;;;1.63;0.80;;;11.50;99.90;;;;;;5039972;28;20024;-44
2023/11/05 06:22:37;;;;;;;1.80;0.70;;;11.50;99.90;;;;;;5041729;28;20048;-43
2023/11/05 06:25:03;;;;;;;2.22;0.88;;;11.50;99.90;;;;;;5040949;28;20025;-42
2023/11/05 06:27:29;;;;;;;1.77;0.75;;;11.50;99.90;;;;;;5040246;28;20087;-43
2023/11/05 06:29:56;;;;;;;1.58;0.85;;;11.50;99.90;;;;;;5040539;28;20036;-42
2023/11/05 06:32:22;;;;;;;0.85;0.73;;;11.50;99.90;;;;;;5039798;28;20048;-42
2023/11/05 06:34:48;;;;;;;2.25;0.90;;;11.50;99.90;;;;;;5041338;28;20328;-42
2023/11/05 06:37:14;;;;;;;1.85;0.70;;;11.50;99.90;;;;;;5039959;28;20044;-42
2023/11/05 06:39:40;;;;;;;3.40;1.30;;;11.50;99.90;;;;;;5044198;28;20153;-42
2023/11/05 06:42:06;;;;;;;3.22;0.95;;;11.50;99.90;;;;;;5047161;28;20415;-42
2023/11/05 06:44:31;;;;;;;1.95;0.60;;;11.60;99.90;;;;;;5041044;28;20075;-42
2023/11/05 06:46:57;;;;;;;2.38;1.02;;;11.50;99.90;;;;;;5041140;28;20017;-43
2023/11/05 06:49:23;;;;;;;1.65;0.70;;;11.50;99.90;;;;;;5035084;28;20044;-43
2023/11/05 06:51:48;;;;;;;1.33;0.80;;;11.60;99.90;;;;;;5028371;28;20883;-43
2023/11/05 06:54:14;;;;;;;0.65;0.65;;;11.60;99.90;;;;;;5040038;28;20162;-44
2023/11/05 06:56:40;;;;;;;0.68;0.68;;;11.60;99.90;;;;;;5039068;28;20496;-43
2023/11/05 06:59:07;;;;;;;1.55;0.70;;;11.60;99.90;;;;;;5041954;28;20064;-42
2023/11/05 07:01:33;;;;;;;1.42;0.70;;;11.60;99.90;;;;;;5038384;28;20060;-42
2023/11/05 07:03:59;;;;;;;1.85;0.85;;;11.60;99.90;;;;;;5034854;28;20472;-42
2023/11/05 07:06:26;;;;;;;1.10;0.70;;;11.60;99.90;;;;;;5039616;28;20036;-42
2023/11/05 07:08:52;;;;;;;1.98;0.98;;;11.60;99.90;;;;;;5036580;28;20052;-42
2023/11/05 07:11:18;;;;;;;2.03;0.90;;;11.60;99.90;;;;;;5033353;28;20033;-42
2023/11/05 07:13:43;;;;;;;2.42;1.10;;;11.60;99.90;;;;;;5038447;28;20064;-43
2023/11/05 07:16:09;;;;;;;1.85;0.80;;;11.70;99.90;;;;;;5029266;28;20472;-42
2023/11/05 07:18:35;;;;;;;1.85;0.98;;;11.60;99.90;;;;;;5043268;28;20033;-43
2023/11/05 07:21:01;;;;;;;3.28;0.70;;;11.70;99.90;;;;;;5038996;28;20129;-43
2023/11/05 07:23:26;;;;;;;2.60;0.73;;;11.70;99.90;;;;;;5036228;28;20025;-44
2023/11/05 07:25:52;;;;;;;1.40;0.55;;;11.60;99.90;;;;;;5037478;28;20027;-42
2023/11/05 07:28:17;;;;;;;2.20;0.90;;;11.60;99.90;;;;;;5037461;28;20049;-43
2023/11/05 07:30:43;;;;;;;1.45;0.85;;;11.60;99.90;;;;;;5043351;28;20030;-43
2023/11/05 07:33:12;;;;;;;2.38;0.82;;;11.60;99.90;;;;;;5024543;28;20099;-42
2023/11/05 07:35:37;;;;;;;1.77;0.90;;;11.70;99.90;;;;;;5037913;28;20488;-42
2023/11/05 07:38:03;;;;;;;2.60;1.30;;;11.70;99.90;;;;;;5038177;28;20117;-43
2023/11/05 07:40:28;;;;;;;2.08;0.98;;;11.60;99.90;;;;;;5038625;28;20116;-42
2023/11/05 07:42:55;;;;;;;2.17;0.90;;;11.70;99.90;;;;;;5038688;28;20035;-43
2023/11/05 07:45:20;;;;;;;3.63;1.10;;;11.70;99.90;;;;;;5041985;28;20037;-43
2023/11/05 07:47:46;;;;;;;1.58;0.80;;;11.70;99.90;;;;;;5041748;28;20029;-42
2023/11/05 07:50:12;;;;;;;1.85;0.88;;;11.70;99.90;;;;;;5029985;28;20494;-43
2023/11/05 07:52:43;;;;;;;1.42;0.63;;;11.80;99.90;;;;;;5028540;28;20095;-43
2023/11/05 07:55:09;;;;;;;1.73;1.00;;;11.80;99.90;;;;;;5041091;28;20025;-43
2023/11/05 07:57:35;;;;;;;1.88;0.75;;;11.80;99.90;;;;;;5041901;28;20037;-43
2023/11/05 08:00:02;;;;;;;1.55;0.60;;;11.80;99.90;;;;;;5044043;28;20029;-42
2023/11/05 08:02:28;;;;;;;3.78;1.30;;;11.80;99.90;;;;;;5042521;28;20036;-43
2023/11/05 08:04:56;;;;;;;1.55;1.40;;;11.80;99.90;;;;;;5040189;28;20302;-43
2023/11/05 08:07:21;;;;;;;1.95;1.25;;;11.80;99.90;;;;;;5034518;28;20024;-43
2023/11/05 08:09:54;;;;;;;1.98;1.20;;;11.80;99.90;;;;;;5040745;28;20439;-43
2023/11/05 08:12:20;;;;;;;3.40;1.10;;;11.80;99.90;;;;;;5037403;28;20029;-44
2023/11/05 08:14:46;;;;;;;1.27;1.15;;;11.80;99.90;;;;;;5039796;28;20485;-43
2023/11/05 08:17:12;;;;;;;3.03;1.25;;;11.90;99.90;;;;;;5039637;28;20117;-43
2023/11/05 08:19:38;;;;;;;1.92;1.13;;;11.90;99.90;;;;;;5038790;28;20135;-42
2023/11/05 08:22:04;;;;;;;2.45;1.02;;;11.80;99.90;;;;;;5041353;28;20064;-42
2023/11/05 08:24:29;;;;;;;2.38;1.10;;;11.90;99.90;;;;;;5040697;28;20119;-42
2023/11/05 08:26:55;;;;;;;3.15;1.30;;;11.80;99.90;;;;;;5040548;28;20027;-42
2023/11/05 08:29:21;;;;;;;2.22;1.05;;;11.90;99.90;;;;;;5042783;28;20140;-43
2023/11/05 08:31:47;;;;;;;3.70;1.17;;;11.90;99.90;;;;;;5034997;28;20021;-43
2023/11/05 08:34:12;;;;;;;3.85;1.40;;;11.90;99.90;;;;;;5029739;28;20133;-43
2023/11/05 08:36:38;;;;;;;1.85;0.90;;;11.90;99.90;;;;;;5040768;28;20034;-44
2023/11/05 08:39:04;;;;;;;2.60;1.20;;;11.90;99.90;;;;;;5025127;28;20021;-43
2023/11/05 08:41:30;;;;;;;2.17;1.10;;;11.90;99.90;;;;;;5041194;28;20074;-43
2023/11/05 08:43:56;;;;;;;3.63;1.30;;;11.90;99.90;;;;;;5041779;28;20032;-44
2023/11/05 08:46:22;;;;;;;5.55;1.50;;;11.90;99.90;;;;;;5047782;28;20684;-43
2023/11/05 08:48:48;;;;;;;5.35;1.17;;;12.00;99.90;;;;;;5057074;28;20028;-43
2023/11/05 08:51:22;;;;;;;2.00;1.10;;;12.00;99.90;;;;;;5049310;28;20036;-43
2023/11/05 08:53:48;;;;;;;5.15;1.50;;;12.00;99.90;;;;;;5040087;28;20057;-43
2023/11/05 08:56:13;;;;;;;2.80;1.20;;;12.10;99.90;;;;;;5040191;28;20028;-43
2023/11/05 08:58:39;;;;;;;2.63;1.35;;;12.10;99.90;;;;;;5033447;28;20034;-43
2023/11/05 09:01:04;;;;;;;3.67;1.33;;;12.10;99.90;;;;;;5029368;28;20028;-35
2023/11/05 09:03:30;;;;;;;1.58;1.10;;;12.20;99.90;;;;;;5031326;28;20309;-34
2023/11/05 09:05:55;;;;;;;3.75;1.52;;;12.20;99.90;;;;;;5034708;28;20040;-36
2023/11/05 09:08:22;;;;;;;3.17;1.20;;;12.20;99.90;;;;;;5032972;28;20032;-36
2023/11/05 09:10:48;;;;;;;1.83;1.30;;;12.20;99.90;;;;;;5046778;28;20028;-36
2023/11/05 09:13:14;;;;;;;1.60;1.10;;;12.20;99.90;;;;;;5044651;28;20621;-35
2023/11/05 09:15:39;;;;;;;3.15;1.63;;;12.20;99.90;;;;;;5040278;28;20025;-35
2023/11/05 09:18:05;;;;;;;2.40;1.17;;;12.20;99.90;;;;;;5039071;28;20064;-36
2023/11/05 09:20:30;;;;;;;2.10;1.10;;;12.20;99.90;;;;;;5056069;28;20127;-36
2023/11/05 09:22:56;;;;;;;2.25;1.33;;;12.30;99.90;;;;;;5043453;28;20123;-36
2023/11/05 09:25:21;;;;;;;4.25;1.75;;;12.30;99.90;;;;;;5041829;28;20032;-35
2023/11/05 09:27:47;;;;;;;3.17;1.70;;;12.30;99.90;;;;;;5041936;28;20056;-37
2023/11/05 09:30:14;;;;;;;4.05;1.70;;;12.30;99.90;;;;;;5039829;28;20504;-36
2023/11/05 09:32:42;;;;;;;3.95;1.77;;;12.30;99.90;;;;;;5041695;28;20068;-38
2023/11/05 09:35:12;;;;;;;3.17;1.77;;;12.30;99.90;;;;;;5042051;28;20031;-36
2023/11/05 09:37:43;;;;;;;4.93;1.90;;;12.30;99.90;;;;;;5041298;28;20072;-36
2023/11/05 09:40:11;;;;;;;6.07;2.28;;;12.30;99.90;;;;;;5041673;28;20029;-35
2023/11/05 09:42:44;;;;;;;3.42;1.70;;;12.30;99.90;;;;;;5041728;28;20025;-36
2023/11/05 09:45:11;;;;;;;4.53;2.05;;;12.30;99.90;;;;;;5040784;28;20110;-36
2023/11/05 09:47:40;;;;;;;2.97;1.95;;;12.30;99.90;;;;;;5040607;28;20024;-35
2023/11/05 09:50:09;;;;;;;3.15;1.40;;;12.30;99.90;;;;;;5041647;28;20056;-36
2023/11/05 09:52:38;;;;;;;4.65;1.90;;;12.40;99.90;;;;;;5041519;28;20127;-35
2023/11/05 09:55:12;;;;;;;3.90;1.83;;;12.40;99.90;;;;;;5031780;28;20482;-36
2023/11/05 09:57:38;;;;;;;5.03;2.15;;;12.50;99.90;;;;;;5041932;28;20021;-38
2023/11/05 10:00:09;;;;;;;3.83;1.90;;;12.50;99.90;;;;;;5041366;28;20017;-38
2023/11/05 10:03:02;;;;;;;5.63;2.20;;;12.60;99.90;;;;;;5040996;28;20033;-37
2023/11/05 10:05:31;;;;;;;4.88;2.40;;;12.60;99.90;;;;;;5030976;28;20025;-38
2023/11/05 10:07:57;;;;;;;3.95;2.30;;;12.70;99.90;;;;;;5040705;28;20064;-38
2023/11/05 10:10:23;;;;;;;5.07;2.42;;;12.70;99.90;;;;;;5040882;28;20025;-37
2023/11/05 10:12:49;;;;;;;4.05;2.90;;;12.70;99.90;;;;;;5040612;28;20029;-39
2023/11/05 10:15:15;;;;;;;4.90;2.47;;;12.60;99.90;;;;;;5039934;28;20032;-38
2023/11/05 10:17:41;;;;;;;3.40;2.30;;;12.60;99.90;;;;;;5041563;28;20037;-36
2023/11/05 10:20:07;;;;;;;3.92;2.83;;;12.60;99.90;;;;;;5040097;28;20028;-36
2023/11/05 10:22:33;;;;;;;5.13;2.50;;;12.60;99.90;;;;;;5040173;28;20071;-37
2023/11/05 10:25:06;;;;;;;3.50;2.00;;;12.60;99.90;;;;;;5042208;28;20591;-38
2023/11/05 10:27:34;;;;;;;;;;;12.50;99.90;;;;;;5040737;28;20033;-37
2023/11/05 10:30:03;;;;;;;7.20;2.78;;;12.50;99.90;;;;;;5040804;28;19931;-36
2023/11/05 10:32:33;;;;;;;2.90;2.03;;;12.50;99.90;;;;;;5039509;28;20476;-36
2023/11/05 10:35:01;;;;;;;3.08;2.00;;;12.40;99.90;;;;;;5040407;28;20352;-36
2023/11/05 10:37:32;;;;;;;5.18;2.55;;;12.40;99.90;;;;;;5042737;28;20041;-37
2023/11/05 10:40:00;;;;;;;3.80;2.50;;;12.40;99.90;;;;;;5039751;28;20482;-37
2023/11/05 10:42:27;;;;;;;2.67;2.30;;;12.40;99.90;;;;;;5040322;28;20279;-38
2023/11/05 10:44:56;;;;;;;3.65;2.50;;;12.40;99.90;;;;;;5040482;28;20025;-37
2023/11/05 10:47:22;;;;;;;3.83;2.40;;;12.40;99.90;;;;;;5039143;28;20056;-38
2023/11/05 10:49:54;;;;;;;3.97;2.60;;;12.40;99.90;;;;;;5039683;28;20036;-38
2023/11/05 10:52:27;;;;;;;4.70;3.00;;;12.40;99.90;;;;;;5040547;28;20123;-37
2023/11/05 10:55:12;;;;;;;5.00;2.80;;;12.40;99.90;;;;;;5028252;28;20033;-38
2023/11/05 10:57:42;;;;;;;5.30;3.15;;;12.40;99.90;;;;;;5035575;28;20025;-38
2023/11/05 11:00:28;;;;;;;3.95;2.83;;;12.30;99.90;;;;;;5031785;28;20056;-39
2023/11/05 11:02:54;;;;;;;4.90;3.50;;;12.20;99.90;;;;;;5039300;28;20025;-38
2023/11/05 11:05:40;;;;;;;5.05;3.28;;;12.20;99.90;;;;;;5039211;28;20115;-37
2023/11/05 11:08:08;;;;;;;3.80;2.85;;;12.20;99.90;;;;;;5038765;28;20075;-38
2023/11/05 11:10:38;;;;;;;4.28;3.13;;;12.20;99.90;;;;;;5028603;28;20375;-36
2023/11/05 11:13:17;;;;;;;4.80;3.05;;;12.10;99.90;;;;;;5043073;28;20044;-38
2023/11/05 11:15:52;;;;;;;4.57;2.85;;;12.20;99.90;;;;;;5026681;28;20021;-35
2023/11/05 11:18:20;;;;;;;3.95;3.00;;;12.20;99.90;;;;;;5040360;28;20036;-36
2023/11/05 11:20:52;;;;;;;3.78;2.70;;;12.20;99.90;;;;;;5032288;28;20059;-36
2023/11/05 11:23:20;;;;;;;3.97;2.80;;;12.20;99.90;;;;;;5043934;28;20025;-36
2023/11/05 11:26:27;;;;;;;4.57;2.60;;;12.20;99.90;;;;;;5038469;28;20124;-37
2023/11/05 11:28:55;;;;;;;4.78;3.05;;;12.20;99.90;;;;;;5037977;28;20044;-37
2023/11/05 11:31:21;;;;;;;4.03;2.67;;;12.30;99.90;;;;;;5043773;28;20806;-36
2023/11/05 11:33:48;;;;;;;3.17;2.38;;;12.20;99.90;;;;;;5045195;28;20068;-37
2023/11/05 11:36:14;;;;;;;4.53;2.42;;;12.20;99.90;;;;;;5042168;28;20087;-36
2023/11/05 11:38:40;;;;;;;5.45;2.20;;;12.20;99.90;;;;;;5043415;28;20128;-37
2023/11/05 11:41:05;;;;;;;4.20;2.85;;;12.20;99.90;;;;;;5049241;28;20053;-36
2023/11/05 11:43:31;;;;;;;4.18;2.38;;;12.20;99.90;;;;;;5035594;28;20057;-37
2023/11/05 11:45:57;;;;;;;5.28;2.67;;;12.10;99.90;;;;;;5029845;28;20067;-38
2023/11/05 11:48:26;;;;;;;5.28;2.10;;;12.10;99.90;;;;;;5042406;28;20068;-38
2023/11/05 11:51:08;;;;;;;4.03;2.05;;;12.10;99.90;;;;;;5032143;28;20112;-38
2023/11/05 11:53:39;;;;;;;3.53;2.20;;;12.20;99.90;;;;;;5042546;28;20076;-36
2023/11/05 11:56:12;;;;;;;8.32;2.72;;;12.30;99.90;;;;;;5032535;28;20061;-37
2023/11/05 11:58:39;;;;;;;7.28;2.63;;;12.30;99.90;;;;;;5044199;28;20103;-36
2023/11/05 12:01:13;;;;;;;6.70;2.45;;;12.40;99.90;;;;;;5042879;28;20140;-38
2023/11/05 12:03:40;;;;;;;4.47;2.33;;;12.50;99.90;;;;;;5039717;28;20039;-36
2023/11/05 12:06:06;;;;;;;7.03;2.28;;;12.60;99.90;;;;;;5039573;28;20025;-37
2023/11/05 12:08:42;;;;;;;5.50;2.53;;;12.60;99.90;;;;;;5036585;28;20037;-37
2023/11/05 12:11:13;;;;;;;5.50;2.80;;;12.70;99.90;;;;;;5036702;28;20107;-36
2023/11/05 12:13:42;;;;;;;5.18;2.70;;;12.80;99.90;;;;;;5033111;28;20033;-36
2023/11/05 12:16:09;;;;;;;9.38;2.80;;;12.90;99.90;;;;;;5037253;28;20476;-37
2023/11/05 12:18:38;;;;;;;5.68;2.90;;;12.90;99.90;;;;;;5034641;28;20040;-37
2023/11/05 12:21:07;;;;;;;5.55;2.88;;;13.00;99.90;;;;;;5035474;28;20021;-36
2023/11/05 12:23:34;;;;;;;6.13;2.47;;;13.00;99.90;;;;;;5041912;28;20084;-37
2023/11/05 12:26:01;;;;;;;6.07;2.65;;;13.00;99.90;;;;;;5042304;28;20739;-38
2023/11/05 12:28:28;;;;;;;6.50;2.63;;;13.00;99.90;;;;;;5042818;28;20017;-37
2023/11/05 12:31:04;;;;;;;5.38;2.33;;;13.00;99.90;;;;;;5042354;28;20033;-38
2023/11/05 12:33:38;;;;;;;4.38;2.08;;;13.00;99.90;;;;;;5042414;28;20087;-38
2023/11/05 12:36:05;;;;;;;4.25;2.13;;;13.00;99.90;;;;;;5042581;28;20044;-37
2023/11/05 12:38:30;;;;;;;3.60;2.00;;;13.00;99.90;;;;;;5042891;28;20118;-38
2023/11/05 12:40:56;;;;;;;4.53;2.15;;;13.00;99.90;;;;;;5042403;28;20025;-39
2023/11/05 12:43:23;;;;;;;6.18;2.40;;;13.00;99.90;;;;;;5042213;28;20048;-37
2023/11/05 12:45:55;;;;;;;4.30;1.85;;;13.00;99.90;;;;;;5043337;28;20140;-37
2023/11/05 12:48:24;;;;;;;4.85;1.77;;;13.00;99.90;;;;;;5042420;28;20033;-36